createdAt,value
2019-03-30T04:46:20.831Z,4.84
2019-03-30T04:47:20.823Z,4.77
2019-03-30T04:48:20.817Z,4.83
2019-03-30T04:49:20.798Z,4.69
2019-03-30T04:50:20.784Z,4.83
2019-03-30T04:51:20.768Z,4.75
2019-03-30T04:52:20.770Z,4.71
2019-03-30T04:53:20.774Z,4.72
2019-03-30T04:54:20.746Z,4.71
2019-03-30T04:55:20.735Z,4.71
2019-03-30T04:56:20.727Z,4.83
2019-03-30T04:57:20.724Z,4.74
2019-03-30T04:58:20.701Z,4.77
2019-03-30T04:59:20.687Z,4.80
2019-03-30T05:00:20.683Z,4.75
2019-03-30T05:01:20.682Z,4.84
2019-03-30T05:02:20.660Z,4.86
2019-03-30T05:03:20.656Z,4.84
2019-03-30T05:04:20.641Z,4.84
2019-03-30T05:05:20.629Z,4.83
2019-03-30T05:06:20.620Z,4.87
2019-03-30T05:07:20.602Z,4.91
2019-03-30T05:08:20.597Z,4.90
2019-03-30T05:09:20.594Z,4.88
2019-03-30T05:10:20.579Z,4.88
2019-03-30T05:11:20.564Z,4.84
2019-03-30T05:12:21.485Z,4.88
2019-03-30T05:13:20.538Z,4.87
2019-03-30T05:14:20.527Z,4.93
2019-03-30T05:15:20.531Z,4.97
2019-03-30T05:16:20.510Z,4.94
2019-03-30T05:17:20.505Z,5.04
2019-03-30T05:18:20.490Z,4.91
2019-03-30T05:19:20.492Z,4.99
2019-03-30T05:20:20.495Z,5.04
2019-03-30T05:21:20.457Z,5.04
2019-03-30T05:22:20.448Z,5.01
2019-03-30T05:23:20.438Z,5.08
2019-03-30T05:24:20.420Z,5.02
2019-03-30T05:25:20.410Z,5.08
2019-03-30T05:26:20.413Z,5.12
2019-03-30T05:27:20.394Z,5.17
2019-03-30T05:28:20.388Z,5.15
2019-03-30T05:29:20.371Z,5.14
2019-03-30T05:30:20.357Z,5.15
2019-03-30T05:31:20.366Z,5.15
2019-03-30T05:32:20.343Z,5.12
2019-03-30T05:33:20.328Z,5.05
2019-03-30T05:34:20.320Z,5.14
2019-03-30T05:35:20.307Z,5.12
2019-03-30T05:36:20.304Z,5.12
2019-03-30T05:37:20.291Z,5.15
2019-03-30T05:38:20.278Z,5.15
2019-03-30T05:39:20.263Z,5.23
2019-03-30T05:40:20.253Z,5.19
2019-03-30T05:41:20.276Z,5.22
2019-03-30T05:42:20.239Z,5.12
2019-03-30T05:43:20.225Z,5.30
2019-03-30T05:44:20.217Z,5.32
2019-03-30T05:45:20.200Z,5.27
2019-03-30T05:46:20.196Z,5.26
2019-03-30T05:47:20.203Z,5.27
2019-03-30T05:48:20.168Z,5.30
2019-03-30T05:49:20.158Z,5.26
2019-03-30T05:50:20.151Z,5.37
2019-03-30T05:51:20.150Z,5.35
2019-03-30T05:52:26.373Z,5.44
2019-03-30T05:53:21.116Z,5.40
2019-03-30T05:54:20.112Z,5.47
2019-03-30T05:55:20.094Z,5.49
2019-03-30T05:56:20.164Z,5.52
2019-03-30T05:57:20.115Z,5.59
2019-03-30T05:58:20.088Z,5.58
2019-03-30T05:59:20.052Z,5.65
2019-03-30T06:00:20.045Z,5.63
2019-03-30T06:01:20.038Z,5.66
2019-03-30T06:02:20.019Z,5.67
2019-03-30T06:03:20.022Z,5.78
2019-03-30T06:04:20.004Z,5.78
2019-03-30T06:05:19.993Z,5.80
2019-03-30T06:06:19.983Z,5.93
2019-03-30T06:07:19.976Z,5.99
2019-03-30T06:08:19.973Z,5.93
2019-03-30T06:09:19.948Z,5.90
2019-03-30T06:10:19.942Z,6.06
2019-03-30T06:11:19.926Z,6.14
2019-03-30T06:12:19.913Z,6.06
2019-03-30T06:13:19.933Z,6.28
2019-03-30T06:14:19.899Z,6.14
2019-03-30T06:15:19.887Z,6.28
2019-03-30T06:16:19.883Z,6.35
2019-03-30T06:17:19.865Z,6.40
2019-03-30T06:18:19.850Z,6.43
2019-03-30T06:19:19.859Z,6.53
2019-03-30T06:20:19.836Z,6.57
2019-03-30T06:21:19.818Z,6.75
2019-03-30T06:22:19.814Z,6.78
2019-03-30T06:23:19.802Z,6.82
2019-03-30T06:24:19.816Z,6.86
2019-03-30T06:25:19.782Z,6.93
2019-03-30T06:26:19.934Z,7.01
2019-03-30T06:27:19.759Z,7.08
2019-03-30T06:28:19.748Z,7.23
2019-03-30T06:29:19.738Z,7.26
2019-03-30T06:30:19.742Z,7.30
2019-03-30T06:31:19.716Z,7.36
2019-03-30T06:32:19.702Z,7.45
2019-03-30T06:33:19.695Z,7.44
2019-03-30T06:34:19.680Z,7.52
2019-03-30T06:35:19.714Z,7.63
2019-03-30T06:36:19.661Z,7.62
2019-03-30T06:37:19.656Z,7.58
2019-03-30T06:38:19.643Z,7.58
2019-03-30T06:39:19.626Z,7.70
2019-03-30T06:40:19.622Z,7.79
2019-03-30T06:41:19.619Z,7.88
2019-03-30T06:42:19.600Z,7.94
2019-03-30T06:43:19.594Z,8.03
2019-03-30T06:44:19.585Z,8.14
2019-03-30T06:45:19.563Z,8.24
2019-03-30T06:46:19.558Z,8.36
2019-03-30T06:47:19.540Z,8.42
2019-03-30T06:48:19.533Z,8.52
2019-03-30T06:49:19.528Z,8.57
2019-03-30T06:50:19.513Z,8.58
2019-03-30T06:51:19.522Z,8.60
2019-03-30T06:52:19.489Z,8.67
2019-03-30T06:53:19.483Z,8.65
2019-03-30T06:54:19.473Z,8.79
2019-03-30T06:55:19.462Z,8.85
2019-03-30T06:56:19.448Z,8.82
2019-03-30T06:57:19.446Z,9.01
2019-03-30T06:58:19.422Z,9.16
2019-03-30T06:59:19.412Z,9.16
2019-03-30T07:00:19.407Z,9.24
2019-03-30T07:01:19.398Z,9.37
2019-03-30T07:02:19.386Z,9.52
2019-03-30T07:03:19.379Z,9.74
2019-03-30T07:04:19.362Z,9.80
2019-03-30T07:05:19.347Z,9.85
2019-03-30T07:06:19.344Z,9.92
2019-03-30T07:07:19.326Z,10.10
2019-03-30T07:08:19.357Z,10.07
2019-03-30T07:09:19.319Z,10.32
2019-03-30T07:10:19.299Z,10.43
2019-03-30T07:11:21.317Z,10.44
2019-03-30T07:12:19.283Z,10.55
2019-03-30T07:13:19.277Z,10.57
2019-03-30T07:14:19.262Z,10.51
2019-03-30T07:15:19.256Z,10.69
2019-03-30T07:16:19.229Z,10.84
2019-03-30T07:17:19.222Z,10.91
2019-03-30T07:18:19.224Z,11.01
2019-03-30T07:19:19.211Z,11.24
2019-03-30T07:20:19.191Z,11.38
2019-03-30T07:21:19.175Z,11.49
2019-03-30T07:22:19.164Z,11.70
2019-03-30T07:23:19.160Z,11.82
2019-03-30T07:24:19.182Z,11.96
2019-03-30T07:25:19.144Z,12.11
2019-03-30T07:26:19.126Z,12.08
2019-03-30T07:27:19.111Z,12.33
2019-03-30T07:28:19.103Z,12.40
2019-03-30T07:29:19.093Z,12.59
2019-03-30T07:30:19.093Z,12.66
2019-03-30T07:31:19.086Z,12.89
2019-03-30T07:32:19.065Z,12.85
2019-03-30T07:33:19.051Z,12.99
2019-03-30T07:34:20.034Z,13.09
2019-03-30T07:35:19.041Z,13.22
2019-03-30T07:36:19.022Z,13.44
2019-03-30T07:37:19.014Z,13.44
2019-03-30T07:38:18.997Z,13.35
2019-03-30T07:39:18.981Z,13.36
2019-03-30T07:40:18.989Z,13.43
2019-03-30T07:41:18.977Z,13.63
2019-03-30T07:42:18.952Z,13.88
2019-03-30T07:43:18.938Z,13.99
2019-03-30T07:44:18.933Z,14.09
2019-03-30T07:45:18.918Z,14.17
2019-03-30T07:46:19.728Z,14.24
2019-03-30T07:47:18.905Z,14.31
2019-03-30T07:48:18.892Z,14.53
2019-03-30T07:49:18.879Z,14.59
2019-03-30T07:50:18.872Z,14.74
2019-03-30T07:51:18.878Z,14.93
2019-03-30T07:52:18.842Z,15.11
2019-03-30T07:53:26.226Z,15.28
2019-03-30T07:54:19.820Z,15.43
2019-03-30T07:55:18.810Z,15.68
2019-03-30T07:56:18.803Z,15.62
2019-03-30T07:57:18.804Z,15.60
2019-03-30T07:58:18.785Z,15.66
2019-03-30T07:59:18.771Z,15.70
2019-03-30T08:00:18.756Z,15.71
2019-03-30T08:01:18.754Z,15.88
2019-03-30T08:02:18.752Z,16.11
2019-03-30T08:03:18.724Z,16.17
2019-03-30T08:04:18.721Z,16.13
2019-03-30T08:05:18.708Z,16.42
2019-03-30T08:06:18.697Z,16.72
2019-03-30T08:07:18.711Z,16.85
2019-03-30T08:08:18.676Z,17.00
2019-03-30T08:09:18.670Z,17.14
2019-03-30T08:10:18.662Z,17.15
2019-03-30T08:11:18.647Z,17.30
2019-03-30T08:12:18.635Z,17.06
2019-03-30T08:13:18.625Z,17.25
2019-03-30T08:14:18.637Z,17.20
2019-03-30T08:15:18.612Z,17.45
2019-03-30T08:16:18.588Z,17.71
2019-03-30T08:17:18.598Z,17.81
2019-03-30T08:18:18.572Z,17.86
2019-03-30T08:19:21.643Z,17.95
2019-03-30T08:20:18.561Z,18.23
2019-03-30T08:21:18.538Z,18.25
2019-03-30T08:22:18.530Z,18.47
2019-03-30T08:23:18.516Z,18.46
2019-03-30T08:24:18.513Z,18.54
2019-03-30T08:25:18.497Z,18.68
2019-03-30T08:26:18.485Z,18.78
2019-03-30T08:27:18.475Z,18.91
2019-03-30T08:28:18.499Z,18.96
2019-03-30T08:29:18.446Z,19.16
2019-03-30T08:30:18.441Z,19.39
2019-03-30T08:31:18.434Z,19.53
2019-03-30T08:32:18.415Z,19.78
2019-03-30T08:33:18.415Z,19.94
2019-03-30T08:34:18.409Z,20.22
2019-03-30T08:35:18.393Z,20.17
2019-03-30T08:36:18.378Z,20.41
2019-03-30T08:37:18.370Z,20.16
2019-03-30T08:38:18.351Z,20.07
2019-03-30T08:39:18.356Z,20.31
2019-03-30T08:40:18.331Z,20.44
2019-03-30T08:41:18.325Z,20.34
2019-03-30T08:42:18.314Z,20.44
2019-03-30T08:43:18.309Z,20.58
2019-03-30T08:44:18.300Z,20.76
2019-03-30T08:45:18.288Z,20.83
2019-03-30T08:46:18.270Z,20.05
2019-03-30T08:47:18.266Z,19.95
2019-03-30T08:48:18.254Z,20.00
2019-03-30T08:49:18.263Z,20.16
2019-03-30T08:50:18.234Z,20.34
2019-03-30T08:51:20.762Z,20.30
2019-03-30T08:52:18.203Z,20.60
2019-03-30T08:53:18.204Z,20.58
2019-03-30T08:54:18.209Z,20.61
2019-03-30T08:55:18.177Z,20.58
2019-03-30T08:56:18.160Z,20.60
2019-03-30T08:57:18.152Z,19.89
2019-03-30T08:58:18.145Z,19.75
2019-03-30T08:59:18.140Z,19.40
2019-03-30T09:00:18.619Z,19.68
2019-03-30T09:01:18.137Z,19.75
2019-03-30T09:02:18.106Z,20.00
2019-03-30T09:03:18.094Z,20.15
2019-03-30T09:04:18.075Z,20.42
2019-03-30T09:05:18.074Z,20.73
2019-03-30T09:06:18.061Z,20.78
2019-03-30T09:07:18.051Z,21.18
2019-03-30T09:08:18.065Z,21.33
2019-03-30T09:09:18.028Z,21.52
2019-03-30T09:10:18.018Z,21.52
2019-03-30T09:11:18.017Z,21.53
2019-03-30T09:12:18.004Z,21.46
2019-03-30T09:13:17.986Z,21.28
2019-03-30T09:14:17.977Z,21.26
2019-03-30T09:15:17.974Z,21.01
2019-03-30T09:16:17.982Z,20.93
2019-03-30T09:17:17.943Z,20.91
2019-03-30T09:18:17.932Z,21.00
2019-03-30T09:19:22.151Z,20.83
2019-03-30T09:20:17.912Z,20.93
2019-03-30T09:21:17.906Z,20.91
2019-03-30T09:22:17.899Z,21.09
2019-03-30T09:23:17.883Z,21.28
2019-03-30T09:24:17.878Z,21.34
2019-03-30T09:25:17.858Z,21.42
2019-03-30T09:26:17.891Z,21.13
2019-03-30T09:27:17.841Z,21.12
2019-03-30T09:28:17.826Z,21.12
2019-03-30T09:29:17.821Z,21.19
2019-03-30T09:30:17.810Z,21.21
2019-03-30T09:31:17.802Z,20.94
2019-03-30T09:32:17.807Z,20.72
2019-03-30T09:33:17.779Z,20.81
2019-03-30T09:34:17.772Z,21.15
2019-03-30T09:35:17.761Z,21.13
2019-03-30T09:36:17.742Z,20.56
2019-03-30T09:37:17.747Z,20.66
2019-03-30T09:38:17.722Z,20.66
2019-03-30T09:39:17.717Z,20.94
2019-03-30T09:40:17.706Z,21.05
2019-03-30T09:41:17.694Z,20.82
2019-03-30T09:42:17.692Z,20.56
2019-03-30T09:43:17.696Z,20.54
2019-03-30T09:44:17.657Z,20.97
2019-03-30T09:45:17.693Z,21.11
2019-03-30T09:46:17.637Z,21.26
2019-03-30T09:47:17.626Z,21.55
2019-03-30T09:48:17.622Z,21.71
2019-03-30T09:49:17.609Z,21.77
2019-03-30T09:50:17.601Z,21.05
2019-03-30T09:51:17.596Z,21.08
2019-03-30T09:52:17.578Z,20.54
2019-03-30T09:53:17.568Z,20.02
2019-03-30T09:54:23.553Z,20.22
2019-03-30T09:55:18.544Z,20.38
2019-03-30T09:56:17.544Z,20.61
2019-03-30T09:57:17.521Z,20.76
2019-03-30T09:58:17.517Z,21.01
2019-03-30T09:59:17.505Z,20.66
2019-03-30T10:00:17.507Z,20.53
2019-03-30T10:01:17.484Z,20.58
2019-03-30T10:02:17.468Z,20.56
2019-03-30T10:03:17.457Z,20.63
2019-03-30T10:04:17.462Z,20.68
2019-03-30T10:05:17.437Z,20.61
2019-03-30T10:06:17.434Z,20.78
2019-03-30T10:07:17.437Z,20.91
2019-03-30T10:08:17.413Z,20.33
2019-03-30T10:09:17.403Z,20.31
2019-03-30T10:10:17.395Z,20.27
2019-03-30T10:11:17.376Z,20.61
2019-03-30T10:12:17.370Z,20.94
2019-03-30T10:13:17.358Z,21.12
2019-03-30T10:14:17.342Z,21.05
2019-03-30T10:15:17.348Z,21.00
2019-03-30T10:16:17.327Z,21.28
2019-03-30T10:17:17.324Z,21.49
2019-03-30T10:18:17.316Z,21.43
2019-03-30T10:19:17.297Z,21.16
2019-03-30T10:20:17.294Z,20.26
2019-03-30T10:21:17.292Z,20.25
2019-03-30T10:22:17.258Z,20.31
2019-03-30T10:23:17.260Z,20.64
2019-03-30T10:24:17.239Z,21.26
2019-03-30T10:25:17.234Z,21.59
2019-03-30T10:26:17.245Z,22.09
2019-03-30T10:27:17.211Z,22.14
2019-03-30T10:28:17.203Z,22.56
2019-03-30T10:29:17.186Z,22.85
2019-03-30T10:30:17.186Z,23.23
2019-03-30T10:31:17.268Z,22.76
2019-03-30T10:32:17.173Z,22.42
2019-03-30T10:33:17.180Z,22.29
2019-03-30T10:34:17.148Z,22.33
2019-03-30T10:35:17.218Z,22.33
2019-03-30T10:36:17.211Z,22.51
2019-03-30T10:37:17.101Z,22.81
2019-03-30T10:38:17.098Z,22.63
2019-03-30T10:39:17.093Z,22.41
2019-03-30T10:40:20.630Z,22.35
2019-03-30T10:41:17.066Z,22.61
2019-03-30T10:42:17.055Z,22.82
2019-03-30T10:43:17.041Z,23.12
2019-03-30T10:44:17.066Z,23.16
2019-03-30T10:45:17.028Z,23.41
2019-03-30T10:46:17.011Z,23.64
2019-03-30T10:47:16.998Z,23.74
2019-03-30T10:48:16.989Z,23.96
2019-03-30T10:49:16.999Z,24.39
2019-03-30T10:50:16.981Z,24.84
2019-03-30T10:51:16.965Z,25.05
2019-03-30T10:52:16.955Z,25.29
2019-03-30T10:53:16.946Z,25.26
2019-03-30T10:54:17.601Z,24.99
2019-03-30T10:55:16.935Z,24.48
2019-03-30T10:56:16.912Z,24.34
2019-03-30T10:57:16.905Z,24.16
2019-03-30T10:58:16.896Z,24.42
2019-03-30T10:59:16.881Z,24.55
2019-03-30T11:00:16.872Z,24.77
2019-03-30T11:01:16.870Z,24.89
2019-03-30T11:02:16.852Z,24.84
2019-03-30T11:03:16.868Z,24.83
2019-03-30T11:04:16.822Z,25.09
2019-03-30T11:05:16.820Z,25.46
2019-03-30T11:06:16.827Z,25.66
2019-03-30T11:07:16.795Z,25.35
2019-03-30T11:08:16.787Z,25.36
2019-03-30T11:09:16.785Z,25.20
2019-03-30T11:10:16.761Z,24.89
2019-03-30T11:11:16.760Z,24.86
2019-03-30T11:12:16.755Z,25.24
2019-03-30T11:13:16.734Z,25.91
2019-03-30T11:14:16.781Z,26.29
2019-03-30T11:15:16.716Z,26.61
2019-03-30T11:16:16.714Z,27.01
2019-03-30T11:17:19.318Z,27.11
2019-03-30T11:18:16.687Z,27.02
2019-03-30T11:19:16.677Z,26.86
2019-03-30T11:20:16.667Z,25.91
2019-03-30T11:21:16.662Z,25.97
2019-03-30T11:22:16.668Z,25.76
2019-03-30T11:23:16.638Z,25.63
2019-03-30T11:24:16.626Z,25.81
2019-03-30T11:25:16.616Z,26.13
2019-03-30T11:26:16.615Z,26.31
2019-03-30T11:27:17.248Z,26.08
2019-03-30T11:28:16.619Z,26.24
2019-03-30T11:29:16.577Z,26.39
2019-03-30T11:30:16.574Z,26.36
2019-03-30T11:31:16.565Z,26.12
2019-03-30T11:32:16.544Z,26.13
2019-03-30T11:33:16.543Z,26.38
2019-03-30T11:34:16.527Z,26.78
2019-03-30T11:35:16.515Z,26.97
2019-03-30T11:36:18.688Z,27.13
2019-03-30T11:37:16.489Z,27.38
2019-03-30T11:38:16.483Z,27.45
2019-03-30T11:39:16.475Z,27.24
2019-03-30T11:40:16.463Z,27.30
2019-03-30T11:41:16.455Z,26.79
2019-03-30T11:42:16.565Z,25.91
2019-03-30T11:43:16.431Z,25.07
2019-03-30T11:44:16.424Z,24.89
2019-03-30T11:45:16.408Z,24.71
2019-03-30T11:46:16.408Z,24.60
2019-03-30T11:47:16.412Z,24.94
2019-03-30T11:48:16.383Z,25.38
2019-03-30T11:49:16.368Z,25.61
2019-03-30T11:50:16.359Z,25.63
2019-03-30T11:51:16.355Z,25.85
2019-03-30T11:52:16.376Z,26.19
2019-03-30T11:53:16.329Z,26.20
2019-03-30T11:54:16.326Z,26.34
2019-03-30T11:55:22.194Z,26.17
2019-03-30T11:56:17.307Z,26.24
2019-03-30T11:57:16.290Z,26.35
2019-03-30T11:58:16.296Z,26.64
2019-03-30T11:59:16.266Z,26.83
2019-03-30T12:00:16.262Z,26.86
2019-03-30T12:01:16.246Z,26.66
2019-03-30T12:02:27.278Z,26.01
2019-03-30T12:03:17.236Z,26.03
2019-03-30T12:04:16.224Z,26.31
2019-03-30T12:05:16.206Z,26.59
2019-03-30T12:06:16.201Z,26.73
2019-03-30T12:07:16.190Z,26.34
2019-03-30T12:08:16.179Z,26.28
2019-03-30T12:09:16.478Z,25.64
2019-03-30T12:10:16.155Z,25.64
2019-03-30T12:11:16.171Z,25.19
2019-03-30T12:12:16.134Z,25.59
2019-03-30T12:13:16.130Z,25.98
2019-03-30T12:14:16.129Z,26.35
2019-03-30T12:15:16.117Z,26.44
2019-03-30T12:16:16.105Z,26.19
2019-03-30T12:17:16.096Z,26.38
2019-03-30T12:18:16.080Z,26.59
2019-03-30T12:19:16.079Z,26.08
2019-03-30T12:20:16.062Z,25.72
2019-03-30T12:21:16.065Z,25.67
2019-03-30T12:22:16.034Z,25.05
2019-03-30T12:23:16.024Z,25.27
2019-03-30T12:24:16.028Z,25.64
2019-03-30T12:25:16.008Z,25.72
2019-03-30T12:26:16.235Z,25.39
2019-03-30T12:27:16.000Z,24.98
2019-03-30T12:28:15.984Z,25.20
2019-03-30T12:29:15.965Z,25.38
2019-03-30T12:30:15.969Z,25.39
2019-03-30T12:31:15.945Z,25.59
2019-03-30T12:32:15.947Z,25.82
2019-03-30T12:33:15.936Z,25.72
2019-03-30T12:34:15.917Z,25.05
2019-03-30T12:35:15.911Z,24.37
2019-03-30T12:36:16.123Z,24.63
2019-03-30T12:37:15.897Z,24.79
2019-03-30T12:38:15.871Z,24.98
2019-03-30T12:39:15.877Z,24.87
2019-03-30T12:40:15.855Z,24.92
2019-03-30T12:41:15.846Z,25.31
2019-03-30T12:42:15.857Z,25.45
2019-03-30T12:43:15.823Z,25.64
2019-03-30T12:44:15.814Z,25.83
2019-03-30T12:45:15.815Z,24.86
2019-03-30T12:46:15.790Z,24.56
2019-03-30T12:47:15.784Z,24.87
2019-03-30T12:48:15.812Z,25.17
2019-03-30T12:49:15.767Z,24.66
2019-03-30T12:50:15.754Z,24.55
2019-03-30T12:51:15.745Z,24.36
2019-03-30T12:52:15.730Z,24.24
2019-03-30T12:53:15.716Z,24.30
2019-03-30T12:54:15.721Z,24.66
2019-03-30T12:55:15.699Z,24.61
2019-03-30T12:56:15.687Z,24.70
2019-03-30T12:57:15.686Z,24.45
2019-03-30T12:58:15.665Z,24.24
2019-03-30T12:59:15.672Z,23.92
2019-03-30T13:00:15.646Z,24.04
2019-03-30T13:01:15.776Z,24.08
2019-03-30T13:02:15.631Z,24.08
2019-03-30T13:03:15.621Z,24.02
2019-03-30T13:04:15.608Z,24.21
2019-03-30T13:05:15.650Z,24.04
2019-03-30T13:06:15.609Z,23.63
2019-03-30T13:07:15.571Z,23.67
2019-03-30T13:08:15.574Z,23.63
2019-03-30T13:09:15.556Z,23.26
2019-03-30T13:10:15.545Z,23.49
2019-03-30T13:11:15.557Z,23.74
2019-03-30T13:12:15.527Z,23.90
2019-03-30T13:13:15.518Z,23.22
2019-03-30T13:14:15.502Z,22.84
2019-03-30T13:15:15.500Z,22.30
2019-03-30T13:16:15.484Z,22.14
2019-03-30T13:17:15.499Z,21.85
2019-03-30T13:18:15.463Z,21.70
2019-03-30T13:19:15.448Z,21.53
2019-03-30T13:20:15.441Z,21.28
2019-03-30T13:21:15.430Z,21.16
2019-03-30T13:22:15.415Z,21.18
2019-03-30T13:23:15.440Z,21.34
2019-03-30T13:24:15.392Z,21.31
2019-03-30T13:25:15.392Z,21.30
2019-03-30T13:26:15.376Z,21.36
2019-03-30T13:27:16.197Z,21.55
2019-03-30T13:28:15.355Z,21.59
2019-03-30T13:29:15.352Z,21.56
2019-03-30T13:30:15.338Z,21.67
2019-03-30T13:31:15.329Z,21.85
2019-03-30T13:32:15.716Z,22.20
2019-03-30T13:33:15.305Z,22.33
2019-03-30T13:34:15.285Z,22.49
2019-03-30T13:35:15.280Z,22.67
2019-03-30T13:36:15.329Z,22.48
2019-03-30T13:37:16.197Z,22.44
2019-03-30T13:38:15.426Z,22.42
2019-03-30T13:39:15.251Z,22.64
2019-03-30T13:40:15.226Z,22.41
2019-03-30T13:41:15.216Z,22.49
2019-03-30T13:42:15.203Z,22.45
2019-03-30T13:43:15.203Z,22.54
2019-03-30T13:44:15.186Z,22.81
2019-03-30T13:45:15.166Z,23.01
2019-03-30T13:46:15.170Z,23.42
2019-03-30T13:47:15.150Z,23.57
2019-03-30T13:48:15.139Z,23.44
2019-03-30T13:49:15.136Z,23.34
2019-03-30T13:50:15.114Z,23.21
2019-03-30T13:51:15.147Z,23.14
2019-03-30T13:52:15.096Z,23.11
2019-03-30T13:53:15.085Z,23.14
2019-03-30T13:54:15.078Z,23.14
2019-03-30T13:55:15.330Z,23.09
2019-03-30T13:56:17.461Z,22.63
2019-03-30T13:57:15.052Z,22.45
2019-03-30T13:58:15.029Z,22.36
2019-03-30T13:59:15.027Z,22.42
2019-03-30T14:00:15.072Z,22.42
2019-03-30T14:01:14.999Z,22.51
2019-03-30T14:02:14.986Z,22.42
2019-03-30T14:03:14.975Z,22.41
2019-03-30T14:04:14.968Z,22.27
2019-03-30T14:05:14.962Z,22.41
2019-03-30T14:06:14.961Z,22.33
2019-03-30T14:07:14.940Z,22.33
2019-03-30T14:08:14.928Z,22.21
2019-03-30T14:09:14.918Z,22.15
2019-03-30T14:10:15.679Z,21.86
2019-03-30T14:11:14.903Z,21.34
2019-03-30T14:12:14.879Z,20.98
2019-03-30T14:13:14.871Z,20.91
2019-03-30T14:14:14.968Z,20.88
2019-03-30T14:15:14.857Z,20.78
2019-03-30T14:16:14.850Z,20.68
2019-03-30T14:17:14.843Z,20.57
2019-03-30T14:18:14.856Z,20.73
2019-03-30T14:19:14.852Z,21.03
2019-03-30T14:20:14.816Z,20.93
2019-03-30T14:21:14.860Z,20.76
2019-03-30T14:22:14.774Z,20.76
2019-03-30T14:23:14.821Z,20.71
2019-03-30T14:24:14.817Z,20.61
2019-03-30T14:25:14.750Z,20.61
2019-03-30T14:26:14.742Z,20.81
2019-03-30T14:27:14.735Z,21.01
2019-03-30T14:28:14.778Z,21.34
2019-03-30T14:29:14.817Z,21.33
2019-03-30T14:30:14.709Z,21.09
2019-03-30T14:31:14.721Z,20.79
2019-03-30T14:32:14.679Z,20.75
2019-03-30T14:33:14.664Z,20.93
2019-03-30T14:34:14.667Z,20.61
2019-03-30T14:35:14.641Z,20.79
2019-03-30T14:36:14.636Z,20.85
2019-03-30T14:37:14.612Z,20.98
2019-03-30T14:38:14.604Z,21.15
2019-03-30T14:39:14.593Z,21.13
2019-03-30T14:40:14.598Z,21.21
2019-03-30T14:41:14.573Z,21.28
2019-03-30T14:42:14.560Z,21.24
2019-03-30T14:43:14.556Z,21.21
2019-03-30T14:44:14.702Z,21.22
2019-03-30T14:45:14.630Z,21.48
2019-03-30T14:46:14.528Z,21.42
2019-03-30T14:47:14.504Z,21.38
2019-03-30T14:48:14.503Z,21.05
2019-03-30T14:49:14.550Z,21.00
2019-03-30T14:50:14.734Z,20.93
2019-03-30T14:51:14.462Z,20.82
2019-03-30T14:52:14.462Z,20.63
2019-03-30T14:53:14.585Z,20.81
2019-03-30T14:54:14.452Z,21.00
2019-03-30T14:55:14.434Z,21.18
2019-03-30T14:56:14.414Z,21.33
2019-03-30T14:57:14.404Z,21.19
2019-03-30T14:58:14.398Z,21.22
2019-03-30T14:59:14.671Z,21.08
2019-03-30T15:00:14.427Z,20.91
2019-03-30T15:01:14.356Z,20.76
2019-03-30T15:02:14.353Z,20.63
2019-03-30T15:03:14.344Z,20.42
2019-03-30T15:04:14.324Z,20.34
2019-03-30T15:05:14.328Z,20.27
2019-03-30T15:06:14.320Z,20.15
2019-03-30T15:07:14.298Z,19.86
2019-03-30T15:08:14.285Z,19.86
2019-03-30T15:09:14.271Z,19.82
2019-03-30T15:10:14.262Z,19.79
2019-03-30T15:11:14.281Z,19.86
2019-03-30T15:12:14.256Z,19.79
2019-03-30T15:13:14.233Z,19.83
2019-03-30T15:14:14.225Z,19.95
2019-03-30T15:15:14.216Z,19.87
2019-03-30T15:16:14.201Z,19.89
2019-03-30T15:17:14.202Z,19.95
2019-03-30T15:18:14.181Z,19.83
2019-03-30T15:19:14.168Z,20.00
2019-03-30T15:20:14.181Z,20.08
2019-03-30T15:21:14.149Z,20.05
2019-03-30T15:22:14.195Z,20.16
2019-03-30T15:23:14.125Z,20.04
2019-03-30T15:24:14.119Z,19.95
2019-03-30T15:25:14.106Z,19.95
2019-03-30T15:26:14.097Z,19.97
2019-03-30T15:27:14.088Z,19.95
2019-03-30T15:28:14.083Z,20.00
2019-03-30T15:29:14.058Z,19.92
2019-03-30T15:30:14.048Z,19.79
2019-03-30T15:31:14.044Z,19.75
2019-03-30T15:32:14.242Z,19.78
2019-03-30T15:33:14.036Z,19.62
2019-03-30T15:34:14.007Z,19.67
2019-03-30T15:35:13.998Z,19.64
2019-03-30T15:36:13.988Z,19.62
2019-03-30T15:37:13.986Z,19.64
2019-03-30T15:38:13.970Z,19.65
2019-03-30T15:39:13.961Z,19.60
2019-03-30T15:40:13.939Z,19.75
2019-03-30T15:41:13.932Z,19.64
2019-03-30T15:42:13.949Z,19.61
2019-03-30T15:43:13.931Z,19.62
2019-03-30T15:44:13.917Z,19.50
2019-03-30T15:45:13.893Z,19.47
2019-03-30T15:46:14.429Z,19.39
2019-03-30T15:47:13.870Z,19.40
2019-03-30T15:48:13.859Z,19.30
2019-03-30T15:49:13.856Z,19.39
2019-03-30T15:50:13.831Z,19.34
2019-03-30T15:51:13.820Z,19.38
2019-03-30T15:52:14.474Z,19.38
2019-03-30T15:53:13.800Z,19.40
2019-03-30T15:54:13.823Z,19.34
2019-03-30T15:55:13.793Z,19.31
2019-03-30T15:56:13.774Z,19.35
2019-03-30T15:57:14.562Z,19.35
2019-03-30T15:58:13.747Z,19.38
2019-03-30T15:59:13.733Z,19.20
2019-03-30T16:00:13.755Z,19.16
2019-03-30T16:01:13.725Z,19.15
2019-03-30T16:02:13.702Z,19.23
2019-03-30T16:03:13.698Z,19.25
2019-03-30T16:04:13.687Z,19.35
2019-03-30T16:05:15.676Z,19.32
2019-03-30T16:06:13.666Z,19.38
2019-03-30T16:07:13.648Z,19.40
2019-03-30T16:08:13.643Z,19.42
2019-03-30T16:09:13.627Z,19.40
2019-03-30T16:10:13.626Z,19.38
2019-03-30T16:11:13.626Z,19.25
2019-03-30T16:12:13.613Z,19.09
2019-03-30T16:13:14.785Z,19.01
2019-03-30T16:14:13.580Z,19.06
2019-03-30T16:15:13.570Z,18.96
2019-03-30T16:16:13.591Z,18.91
2019-03-30T16:17:15.015Z,18.99
2019-03-30T16:18:13.547Z,18.94
2019-03-30T16:19:13.521Z,18.86
2019-03-30T16:20:13.508Z,18.82
2019-03-30T16:21:13.511Z,18.91
2019-03-30T16:22:13.533Z,18.76
2019-03-30T16:23:13.484Z,18.69
2019-03-30T16:24:13.653Z,18.54
2019-03-30T16:25:13.513Z,18.51
2019-03-30T16:26:13.449Z,18.71
2019-03-30T16:27:27.818Z,18.65
2019-03-30T16:28:14.447Z,18.59
2019-03-30T16:29:13.421Z,18.69
2019-03-30T16:30:13.568Z,18.69
2019-03-30T16:31:13.388Z,18.74
2019-03-30T16:32:16.777Z,18.74
2019-03-30T16:33:20.473Z,18.75
2019-03-30T16:34:13.357Z,18.82
2019-03-30T16:35:13.345Z,18.74
2019-03-30T16:36:13.336Z,18.75
2019-03-30T16:37:13.330Z,18.79
2019-03-30T16:38:13.352Z,18.78
2019-03-30T16:39:13.308Z,18.82
2019-03-30T16:40:13.298Z,18.72
2019-03-30T16:41:13.283Z,18.78
2019-03-30T16:42:13.293Z,18.71
2019-03-30T16:43:13.266Z,18.66
2019-03-30T16:44:13.256Z,18.60
2019-03-30T16:45:13.243Z,18.60
2019-03-30T16:46:13.231Z,18.64
2019-03-30T16:47:13.223Z,18.53
2019-03-30T16:48:14.853Z,18.54
2019-03-30T16:49:13.230Z,18.42
2019-03-30T16:50:13.185Z,18.32
2019-03-30T16:51:13.176Z,18.32
2019-03-30T16:52:13.175Z,18.31
2019-03-30T16:53:13.152Z,18.31
2019-03-30T16:54:13.141Z,18.29
2019-03-30T16:55:13.141Z,18.25
2019-03-30T16:56:13.122Z,18.14
2019-03-30T16:57:13.113Z,18.17
2019-03-30T16:58:13.101Z,18.05
2019-03-30T16:59:14.001Z,18.05
2019-03-30T17:00:13.116Z,18.05
2019-03-30T17:01:13.063Z,17.92
2019-03-30T17:02:13.052Z,17.92
2019-03-30T17:03:13.046Z,17.91
2019-03-30T17:04:13.035Z,17.91
2019-03-30T17:05:13.027Z,17.91
2019-03-30T17:06:13.024Z,17.96
2019-03-30T17:07:12.999Z,18.01
2019-03-30T17:08:13.114Z,17.84
2019-03-30T17:09:12.983Z,17.87
2019-03-30T17:10:12.980Z,17.98
2019-03-30T17:11:12.971Z,17.87
2019-03-30T17:12:12.959Z,17.92
2019-03-30T17:13:12.976Z,17.91
2019-03-30T17:14:12.975Z,17.80
2019-03-30T17:15:12.923Z,17.77
2019-03-30T17:16:12.975Z,17.77
2019-03-30T17:17:12.922Z,17.86
2019-03-30T17:18:12.886Z,17.68
2019-03-30T17:19:12.872Z,17.63
2019-03-30T17:20:12.866Z,17.68
2019-03-30T17:21:12.855Z,17.68
2019-03-30T17:22:12.904Z,17.66
2019-03-30T17:23:12.873Z,17.71
2019-03-30T17:24:12.834Z,17.60
2019-03-30T17:25:12.807Z,17.53
2019-03-30T17:26:12.801Z,17.45
2019-03-30T17:27:12.836Z,17.42
2019-03-30T17:28:12.781Z,17.32
2019-03-30T17:29:12.773Z,17.38
2019-03-30T17:30:12.759Z,17.35
2019-03-30T17:31:12.823Z,17.24
2019-03-30T17:32:12.761Z,17.15
2019-03-30T17:33:12.824Z,17.20
2019-03-30T17:34:12.720Z,17.17
2019-03-30T17:35:12.707Z,17.17
2019-03-30T17:36:12.697Z,17.12
2019-03-30T17:37:14.452Z,17.00
2019-03-30T17:38:12.668Z,17.03
2019-03-30T17:39:12.667Z,16.92
2019-03-30T17:40:12.657Z,16.99
2019-03-30T17:41:12.638Z,16.92
2019-03-30T17:42:13.258Z,16.90
2019-03-30T17:43:12.614Z,16.84